Max Planck — ELZY8 — position and weather

sailwx.info

Track history (hours):
 
Tides and Currents Weather Stations Pressure Air Temp Water Temp Dewpoint Dewpoint Depression Visibility Wind Speed Wind Dir Waves Ship Positions

Max Planck

Last reported at 2015-Jul-05 19:33 UTC. Time now 2015-Jul-06 15:38 UTC.
Position N 34°01' E 130°50'.

Length 99.9 m; beam 16.2 m; draft 6.8 m.

Type: Tanker. MMSI: 636091773.

Date/timePositionNaut miles runAvg speedWind from/ knotsBaromVisibWave heightAir tempDewpointWater temp
2015-Jul-05 19:33N 34°01' E 130°50'  
2015-Jul-02 18:30N 30°56' E 125°36'1411.6
2015-Jul-02 17:18N 30°45' E 125°26'3512.4
2015-Jul-02 14:28N 30°18' E 124°60'1412.2
2015-Jul-02 13:19N 30°06' E 124°50'  
2015-Jun-27 23:33N 22°51' E 119°57'10 9.6
2015-Jun-27 22:33N 22°45' E 120°05'9 9.3
2015-Jun-27 21:33N 22°38' E 120°13'6 5.6
2015-Jun-27 20:28N 22°35' E 120°18'0 0.0
2015-Jun-27 06:20N 22°35' E 120°18'1 1.7
2015-Jun-27 05:33N 22°36' E 120°17'1 0.5
2015-Jun-27 04:23N 22°36' E 120°18'0 0.0
2015-Jun-27 03:29N 22°36' E 120°18'0 0.0
2015-Jun-27 02:29N 22°36' E 120°18'0 0.0
2015-Jun-27 01:23N 22°36' E 120°18'0 0.0
2015-Jun-27 00:05N 22°36' E 120°18'0 0.0
2015-Jun-26 23:29N 22°36' E 120°18'0 0.0
2015-Jun-26 22:29N 22°36' E 120°18'0 0.0
2015-Jun-26 21:29N 22°36' E 120°18'0 0.0
2015-Jun-26 20:05N 22°36' E 120°18'0 0.0
2015-Jun-26 19:29N 22°36' E 120°18'0 0.0
2015-Jun-26 18:21N 22°36' E 120°18'0 0.0
2015-Jun-26 17:10N 22°36' E 120°18'0 0.0
2015-Jun-26 16:16N 22°36' E 120°18'0 0.0
2015-Jun-26 15:10N 22°36' E 120°18'0 0.0
2015-Jun-26 14:22N 22°36' E 120°18'0 0.0
2015-Jun-26 13:10N 22°36' E 120°18'0 0.0
2015-Jun-26 12:28N 22°36' E 120°18'0 0.0
2015-Jun-26 11:22N 22°36' E 120°18'0 0.0
2015-Jun-26 10:10N 22°36' E 120°18'0 0.0
2015-Jun-26 09:27N 22°36' E 120°18'0 0.0
2015-Jun-26 07:33N 22°36' E 120°18'0 0.0
2015-Jun-26 05:33N 22°36' E 120°18'3 3.1
2015-Jun-26 04:33N 22°37' E 120°15'3 3.4
2015-Jun-26 03:33N 22°38' E 120°11'2 1.9
2015-Jun-26 02:33N 22°38' E 120°09'2 2.3
2015-Jun-26 01:33N 22°37' E 120°06'1 0.7
2015-Jun-26 00:33N 22°37' E 120°06'3 3.3
2015-Jun-25 23:33N 22°37' E 120°09'5 5.2
2015-Jun-25 22:33N 22°42' E 120°07'8 7.6
2015-Jun-25 21:33N 22°47' E 120°01'  
Track history (hours):
 
Tides and Currents Weather Stations Pressure Air Temp Water Temp Dewpoint Dewpoint Depression Visibility Wind Speed Wind Dir Waves Ship Positions

Max Planck

Last reported at 2015-Jul-05 19:33 UTC. Time now 2015-Jul-06 15:38 UTC.
Position N 34°01' E 130°50'.

Length 99.9 m; beam 16.2 m; draft 6.8 m.

Type: Tanker. MMSI: 636091773.

Date/timePositionNaut miles runAvg speedWind from/ knotsBaromVisibWave heightAir tempDewpointWater temp
2015-Jul-05 19:33N 34°01' E 130°50'  
2015-Jul-02 18:30N 30°56' E 125°36'1411.6
2015-Jul-02 17:18N 30°45' E 125°26'3512.4
2015-Jul-02 14:28N 30°18' E 124°60'1412.2
2015-Jul-02 13:19N 30°06' E 124°50'  
2015-Jun-27 23:33N 22°51' E 119°57'10 9.6
2015-Jun-27 22:33N 22°45' E 120°05'9 9.3
2015-Jun-27 21:33N 22°38' E 120°13'6 5.6
2015-Jun-27 20:28N 22°35' E 120°18'0 0.0
2015-Jun-27 06:20N 22°35' E 120°18'1 1.7
2015-Jun-27 05:33N 22°36' E 120°17'1 0.5
2015-Jun-27 04:23N 22°36' E 120°18'0 0.0
2015-Jun-27 03:29N 22°36' E 120°18'0 0.0
2015-Jun-27 02:29N 22°36' E 120°18'0 0.0
2015-Jun-27 01:23N 22°36' E 120°18'0 0.0
2015-Jun-27 00:05N 22°36' E 120°18'0 0.0
2015-Jun-26 23:29N 22°36' E 120°18'0 0.0
2015-Jun-26 22:29N 22°36' E 120°18'0 0.0
2015-Jun-26 21:29N 22°36' E 120°18'0 0.0
2015-Jun-26 20:05N 22°36' E 120°18'0 0.0
2015-Jun-26 19:29N 22°36' E 120°18'0 0.0
2015-Jun-26 18:21N 22°36' E 120°18'0 0.0
2015-Jun-26 17:10N 22°36' E 120°18'0 0.0
2015-Jun-26 16:16N 22°36' E 120°18'0 0.0
2015-Jun-26 15:10N 22°36' E 120°18'0 0.0
2015-Jun-26 14:22N 22°36' E 120°18'0 0.0
2015-Jun-26 13:10N 22°36' E 120°18'0 0.0
2015-Jun-26 12:28N 22°36' E 120°18'0 0.0
2015-Jun-26 11:22N 22°36' E 120°18'0 0.0
2015-Jun-26 10:10N 22°36' E 120°18'0 0.0
2015-Jun-26 09:27N 22°36' E 120°18'0 0.0
2015-Jun-26 07:33N 22°36' E 120°18'0 0.0
2015-Jun-26 05:33N 22°36' E 120°18'3 3.1
2015-Jun-26 04:33N 22°37' E 120°15'3 3.4
2015-Jun-26 03:33N 22°38' E 120°11'2 1.9
2015-Jun-26 02:33N 22°38' E 120°09'2 2.3
2015-Jun-26 01:33N 22°37' E 120°06'1 0.7
2015-Jun-26 00:33N 22°37' E 120°06'3 3.3
2015-Jun-25 23:33N 22°37' E 120°09'5 5.2
2015-Jun-25 22:33N 22°42' E 120°07'8 7.6
2015-Jun-25 21:33N 22°47' E 120°01'  

Dump ship's entire track history